createdAt,value
2019-01-25T00:01:45.290Z,32.63
2019-01-25T00:04:14.898Z,33.00
2019-01-25T00:06:44.875Z,29.17
2019-01-25T00:09:14.791Z,32.63
2019-01-25T00:11:44.635Z,33.67
2019-01-25T00:14:14.242Z,32.47
2019-01-25T00:16:44.233Z,31.73
2019-01-25T00:19:13.862Z,31.90
2019-01-25T00:21:43.455Z,31.10
2019-01-25T00:24:13.377Z,30.80
2019-01-25T00:26:42.992Z,31.97
2019-01-25T00:29:12.589Z,33.23
2019-01-25T00:31:42.211Z,27.80
2019-01-25T00:34:11.803Z,33.07
2019-01-25T00:36:41.404Z,32.63
2019-01-25T00:39:10.991Z,25.97
2019-01-25T00:41:40.593Z,32.90
2019-01-25T00:44:10.202Z,29.40
2019-01-25T00:46:39.819Z,30.53
2019-01-25T00:49:09.431Z,38.03
2019-01-25T00:51:39.055Z,35.30
2019-01-25T00:54:08.638Z,34.63
2019-01-25T00:56:38.863Z,33.33
2019-01-25T00:59:08.851Z,34.90
2019-01-25T01:01:39.115Z,35.37
2019-01-25T01:04:08.726Z,32.53
2019-01-25T01:06:38.407Z,31.40
2019-01-25T01:09:09.674Z,30.13
2019-01-25T01:11:39.567Z,32.97
2019-01-25T01:14:09.239Z,35.57
2019-01-25T01:16:38.933Z,35.80
2019-01-25T01:19:08.532Z,33.60
2019-01-25T01:21:38.199Z,32.70
2019-01-25T01:24:07.878Z,31.07
2019-01-25T01:26:37.522Z,37.33
2019-01-25T01:29:07.132Z,32.40
2019-01-25T01:31:36.759Z,32.57
2019-01-25T01:34:06.458Z,33.83
2019-01-25T01:36:36.224Z,31.37
2019-01-25T01:39:07.730Z,34.60
2019-01-25T01:41:37.332Z,30.17
2019-01-25T01:44:07.273Z,30.67
2019-01-25T01:46:36.850Z,34.40
2019-01-25T01:49:06.599Z,34.07
2019-01-25T01:51:36.197Z,31.10
2019-01-25T01:54:06.211Z,32.77
2019-01-25T01:56:35.815Z,36.23
2019-01-25T01:59:05.476Z,31.27
2019-01-25T02:01:35.083Z,33.07
2019-01-25T02:04:05.143Z,31.40
2019-01-25T02:06:34.746Z,32.03
2019-01-25T02:09:06.559Z,32.77
2019-01-25T02:11:37.413Z,33.73
2019-01-25T02:14:07.062Z,33.10
2019-01-25T02:16:36.689Z,33.70
2019-01-25T02:19:06.571Z,31.70
2019-01-25T02:21:36.160Z,32.40
2019-01-25T02:24:06.107Z,28.90
2019-01-25T02:26:35.689Z,30.37
2019-01-25T02:29:05.475Z,29.20
2019-01-25T02:31:35.093Z,32.63
2019-01-25T02:34:04.810Z,32.57
2019-01-25T02:36:34.922Z,31.23
2019-01-25T02:39:07.725Z,29.20
2019-01-25T02:41:37.374Z,31.53
2019-01-25T02:44:06.988Z,32.80
2019-01-25T02:46:36.651Z,30.60
2019-01-25T02:49:06.276Z,29.57
2019-01-25T02:51:36.139Z,32.60
2019-01-25T02:54:05.887Z,38.23
2019-01-25T02:56:35.472Z,29.33
2019-01-25T02:59:05.436Z,34.47
2019-01-25T03:01:35.291Z,30.90
2019-01-25T03:04:05.425Z,31.53
2019-01-25T03:06:34.996Z,28.77
2019-01-25T03:09:08.980Z,36.77
2019-01-25T03:11:38.640Z,34.30
2019-01-25T03:14:08.246Z,31.97
2019-01-25T03:16:37.847Z,35.67
2019-01-25T03:19:07.486Z,33.40
2019-01-25T03:21:37.097Z,33.03
2019-01-25T03:24:07.201Z,34.00
2019-01-25T03:26:36.807Z,31.27
2019-01-25T03:29:07.387Z,30.60
2019-01-25T03:31:37.954Z,35.17
2019-01-25T03:34:07.869Z,32.20
2019-01-25T03:36:37.462Z,32.27
2019-01-25T03:39:09.620Z,31.07
2019-01-25T03:41:39.376Z,30.43
2019-01-25T03:44:09.336Z,31.17
2019-01-25T03:46:38.947Z,30.97
2019-01-25T03:49:08.717Z,33.87
2019-01-25T03:51:38.307Z,31.93
2019-01-25T03:54:08.138Z,27.57
2019-01-25T03:56:37.746Z,30.20
2019-01-25T03:59:07.421Z,32.77
2019-01-25T04:01:37.031Z,35.63
2019-01-25T04:04:06.959Z,33.23
2019-01-25T04:06:36.544Z,33.63
2019-01-25T04:09:09.535Z,31.53
2019-01-25T04:11:39.185Z,32.27
2019-01-25T04:14:08.871Z,33.70
2019-01-25T04:16:38.475Z,34.37
2019-01-25T04:19:08.223Z,33.87
2019-01-25T04:21:37.804Z,34.60
2019-01-25T04:24:07.471Z,32.20
2019-01-25T04:26:37.035Z,37.87
2019-01-25T04:29:06.915Z,34.23
2019-01-25T04:31:36.491Z,36.70
2019-01-25T04:34:06.441Z,33.07
2019-01-25T04:36:36.439Z,31.17
2019-01-25T04:39:08.903Z,37.10
2019-01-25T04:41:38.552Z,40.80
2019-01-25T04:44:08.184Z,40.30
2019-01-25T04:46:37.838Z,34.17
2019-01-25T04:49:07.470Z,38.60
2019-01-25T04:51:37.156Z,35.07
2019-01-25T04:54:06.863Z,43.50
2019-01-25T04:56:39.675Z,32.70
2019-01-25T04:59:09.377Z,42.10
2019-01-25T05:01:38.990Z,39.90
2019-01-25T05:04:09.005Z,42.23
2019-01-25T05:06:38.607Z,39.50
2019-01-25T05:09:09.452Z,36.00
2019-01-25T05:11:39.112Z,39.30
2019-01-25T05:14:08.782Z,39.70
2019-01-25T05:16:38.387Z,44.77
2019-01-25T05:19:07.975Z,43.13
2019-01-25T05:21:37.897Z,34.90
2019-01-25T05:24:12.074Z,36.63
2019-01-25T05:26:41.675Z,40.07
2019-01-25T05:29:11.258Z,39.93
2019-01-25T05:31:41.131Z,42.50
2019-01-25T05:34:10.735Z,39.60
2019-01-25T05:36:40.359Z,37.40
2019-01-25T05:39:10.339Z,43.70
2019-01-25T05:41:39.946Z,36.80
2019-01-25T05:44:09.542Z,39.23
2019-01-25T05:46:39.189Z,32.87
2019-01-25T05:49:09.098Z,35.70
2019-01-25T05:51:38.687Z,37.90
2019-01-25T05:54:08.319Z,37.20
2019-01-25T05:56:43.019Z,37.50
2019-01-25T05:59:12.631Z,36.23
2019-01-25T06:01:45.656Z,36.73
2019-01-25T06:04:15.564Z,45.50
2019-01-25T06:06:45.147Z,39.33
2019-01-25T06:09:20.803Z,42.40
2019-01-25T06:11:50.393Z,39.03
2019-01-25T06:14:19.988Z,37.43
2019-01-25T06:16:49.583Z,38.63
2019-01-25T06:19:19.184Z,39.23
2019-01-25T06:21:49.804Z,42.83
2019-01-25T06:24:19.403Z,37.20
2019-01-25T06:26:49.031Z,41.33
2019-01-25T06:29:18.718Z,33.57
2019-01-25T06:31:48.311Z,69.90
2019-01-25T06:34:18.272Z,38.60
2019-01-25T06:36:47.870Z,40.97
2019-01-25T06:39:17.476Z,53.90
2019-01-25T06:41:47.111Z,36.20
2019-01-25T06:44:16.715Z,41.73
2019-01-25T06:46:46.390Z,39.50
2019-01-25T06:49:15.966Z,36.40
2019-01-25T06:51:45.578Z,35.80
2019-01-25T06:54:15.167Z,34.00
2019-01-25T06:56:44.764Z,35.50
2019-01-25T06:59:20.679Z,45.63
2019-01-25T07:02:09.384Z,42.27
2019-01-25T07:04:39.281Z,38.10
2019-01-25T07:07:17.847Z,38.40
2019-01-25T07:09:47.796Z,39.53
2019-01-25T07:12:17.407Z,34.00
2019-01-25T07:14:47.107Z,45.40
2019-01-25T07:17:18.185Z,34.80
2019-01-25T07:19:47.760Z,35.97
2019-01-25T07:22:17.391Z,37.30
2019-01-25T07:24:47.013Z,50.20
2019-01-25T07:27:16.627Z,40.53
2019-01-25T07:29:46.203Z,37.73
2019-01-25T07:32:15.916Z,36.03
2019-01-25T07:34:45.600Z,39.60
2019-01-25T07:37:15.196Z,39.80
2019-01-25T07:39:44.963Z,44.30
2019-01-25T07:42:14.572Z,38.23
2019-01-25T07:44:44.139Z,32.93
2019-01-25T07:47:13.866Z,37.63
2019-01-25T07:49:43.871Z,38.80
2019-01-25T07:52:13.494Z,37.30
2019-01-25T07:54:43.141Z,37.97
2019-01-25T07:57:12.723Z,40.07
2019-01-25T07:59:42.324Z,41.10
2019-01-25T08:02:11.941Z,41.13
2019-01-25T08:04:41.689Z,35.40
2019-01-25T08:07:11.353Z,40.67
2019-01-25T08:09:40.989Z,40.50
2019-01-25T08:12:10.887Z,37.73
2019-01-25T08:14:40.797Z,35.07
2019-01-25T08:17:10.386Z,40.83
2019-01-25T08:19:41.195Z,44.60
2019-01-25T08:22:11.248Z,37.03
2019-01-25T08:24:40.832Z,36.70
2019-01-25T08:27:10.756Z,28.97
2019-01-25T08:29:40.373Z,32.53
2019-01-25T08:32:10.026Z,33.93
2019-01-25T08:34:39.691Z,36.33
2019-01-25T08:37:09.308Z,28.57
2019-01-25T08:39:38.885Z,36.07
2019-01-25T08:42:15.250Z,34.80
2019-01-25T08:44:39.915Z,37.30
2019-01-25T08:47:09.546Z,37.13
2019-01-25T08:49:39.194Z,32.93
2019-01-25T08:52:10.686Z,34.93
2019-01-25T08:54:40.504Z,38.13
2019-01-25T08:57:10.209Z,31.50
2019-01-25T08:59:39.853Z,32.20
2019-01-25T09:02:09.498Z,31.33
2019-01-25T09:04:40.053Z,30.40
2019-01-25T09:07:09.636Z,32.00
2019-01-25T09:09:39.522Z,30.80
2019-01-25T09:12:09.200Z,28.03
2019-01-25T09:14:38.788Z,31.60
2019-01-25T09:17:08.367Z,26.80
2019-01-25T09:19:37.978Z,34.33
2019-01-25T09:22:07.859Z,28.20
2019-01-25T09:24:37.571Z,29.73
2019-01-25T09:27:07.171Z,31.00
2019-01-25T09:29:36.811Z,33.70
2019-01-25T09:32:06.619Z,31.13
2019-01-25T09:34:36.207Z,32.80
2019-01-25T09:37:05.892Z,54.67
2019-01-25T09:39:35.649Z,34.27
2019-01-25T09:42:05.626Z,28.70
2019-01-25T09:44:35.186Z,38.13
2019-01-25T09:47:04.877Z,35.20
2019-01-25T09:49:34.459Z,36.63
2019-01-25T09:52:04.323Z,33.20
2019-01-25T09:54:33.895Z,33.57
2019-01-25T09:57:03.495Z,25.87
2019-01-25T09:59:33.059Z,29.63
2019-01-25T10:02:02.667Z,30.13
2019-01-25T10:04:32.279Z,29.50
2019-01-25T10:07:01.879Z,29.47
2019-01-25T10:09:31.979Z,28.40
2019-01-25T10:12:01.568Z,29.87
2019-01-25T10:14:31.142Z,30.37
2019-01-25T10:17:00.759Z,26.00
2019-01-25T10:19:31.412Z,27.67
2019-01-25T10:22:01.099Z,39.63
2019-01-25T10:24:30.679Z,29.43
2019-01-25T10:27:00.284Z,33.33
2019-01-25T10:29:29.859Z,28.33
2019-01-25T10:31:59.506Z,32.60
2019-01-25T10:34:29.098Z,54.03
2019-01-25T10:36:58.678Z,29.77
2019-01-25T10:39:28.287Z,24.47
2019-01-25T10:41:57.870Z,22.60
2019-01-25T10:44:27.454Z,24.87
2019-01-25T10:46:57.020Z,27.87
2019-01-25T10:49:26.620Z,25.13
2019-01-25T10:51:56.243Z,29.77
2019-01-25T10:54:25.844Z,32.33
2019-01-25T10:56:55.185Z,25.03
2019-01-25T10:59:25.001Z,28.47
2019-01-25T11:01:54.910Z,31.97
2019-01-25T11:04:24.523Z,28.73
2019-01-25T11:06:54.107Z,29.40
2019-01-25T11:09:23.699Z,45.40
2019-01-25T11:11:53.288Z,29.43
2019-01-25T11:14:22.980Z,40.13
2019-01-25T11:16:52.859Z,36.47
2019-01-25T11:19:22.539Z,30.33
2019-01-25T11:21:52.231Z,35.60
2019-01-25T11:24:21.791Z,27.57
2019-01-25T11:26:51.435Z,34.00
2019-01-25T11:29:21.047Z,42.57
2019-01-25T11:31:50.668Z,34.77
2019-01-25T11:34:20.255Z,35.60
2019-01-25T11:36:49.841Z,36.23
2019-01-25T11:39:19.491Z,35.43
2019-01-25T11:41:49.375Z,40.17
2019-01-25T11:44:18.969Z,37.50
2019-01-25T11:46:49.603Z,36.67
2019-01-25T11:49:19.191Z,36.50
2019-01-25T11:51:48.795Z,38.03
2019-01-25T11:54:18.383Z,34.83
2019-01-25T11:56:48.036Z,35.93
2019-01-25T11:59:17.646Z,38.23
2019-01-25T12:01:47.327Z,36.43
2019-01-25T12:04:16.999Z,39.10
2019-01-25T12:06:46.580Z,39.90
2019-01-25T12:09:16.198Z,34.17
2019-01-25T12:11:46.084Z,37.00
2019-01-25T12:14:15.672Z,33.93
2019-01-25T12:16:45.322Z,36.97
2019-01-25T12:19:14.945Z,32.43
2019-01-25T12:21:44.527Z,35.47
2019-01-25T12:24:14.512Z,38.20
2019-01-25T12:26:45.018Z,35.43
2019-01-25T12:29:14.792Z,32.77
2019-01-25T12:31:44.376Z,32.57
2019-01-25T12:34:13.971Z,36.83
2019-01-25T12:36:43.891Z,38.60
2019-01-25T12:39:13.488Z,35.53
2019-01-25T12:41:43.418Z,40.50
2019-01-25T12:44:13.073Z,36.00
2019-01-25T12:46:42.988Z,34.40
2019-01-25T12:49:12.579Z,38.30
2019-01-25T12:51:53.945Z,39.43
2019-01-25T12:54:23.520Z,38.53
2019-01-25T12:56:53.110Z,52.63
2019-01-25T12:59:22.691Z,42.27
2019-01-25T13:01:52.288Z,44.20
2019-01-25T13:04:21.935Z,45.97
2019-01-25T13:06:51.882Z,45.27
2019-01-25T13:09:21.892Z,45.80
2019-01-25T13:11:51.568Z,43.87
2019-01-25T13:14:21.236Z,49.30
2019-01-25T13:16:50.907Z,49.27
2019-01-25T13:19:21.087Z,48.67
2019-01-25T13:21:51.092Z,62.43
2019-01-25T13:24:20.659Z,46.77
2019-01-25T13:26:50.256Z,48.27
2019-01-25T13:29:26.056Z,46.67
2019-01-25T13:31:51.695Z,45.27
2019-01-25T13:34:21.383Z,43.97
2019-01-25T13:36:56.992Z,42.80
2019-01-25T13:39:23.404Z,47.20
2019-01-25T13:41:53.103Z,43.60
2019-01-25T13:44:22.679Z,48.60
2019-01-25T13:46:53.024Z,45.43
2019-01-25T13:49:23.849Z,41.50
2019-01-25T13:51:53.431Z,49.73
2019-01-25T13:54:23.116Z,47.60
2019-01-25T13:56:53.162Z,48.17
2019-01-25T13:59:22.763Z,51.63
2019-01-25T14:01:56.191Z,50.17
2019-01-25T14:04:23.972Z,47.97
2019-01-25T14:06:53.551Z,50.87
2019-01-25T14:09:23.191Z,53.93
2019-01-25T14:11:52.798Z,57.40
2019-01-25T14:14:22.435Z,51.23
2019-01-25T14:16:52.027Z,53.20
2019-01-25T14:19:21.644Z,49.80
2019-01-25T14:21:51.252Z,57.73
2019-01-25T14:24:20.879Z,55.53
2019-01-25T14:26:50.568Z,59.20
2019-01-25T14:29:20.166Z,62.03
2019-01-25T14:31:49.760Z,61.47
2019-01-25T14:34:19.640Z,58.77
2019-01-25T14:36:49.283Z,68.87
2019-01-25T14:39:18.902Z,63.97
2019-01-25T14:41:48.741Z,63.33
2019-01-25T14:44:18.647Z,66.77
2019-01-25T14:46:48.252Z,59.47
2019-01-25T14:49:17.911Z,69.40
2019-01-25T14:51:47.511Z,68.37
2019-01-25T14:54:17.098Z,67.20
2019-01-25T14:56:46.708Z,69.33
2019-01-25T14:59:17.260Z,73.13
2019-01-25T15:01:46.863Z,63.50
2019-01-25T15:04:16.721Z,57.63
2019-01-25T15:06:46.359Z,79.57
2019-01-25T15:09:16.059Z,68.47
2019-01-25T15:11:45.727Z,62.90
2019-01-25T15:14:15.326Z,76.93
2019-01-25T15:16:45.200Z,72.00
2019-01-25T15:19:14.811Z,68.63
2019-01-25T15:21:44.399Z,72.33
2019-01-25T15:24:14.005Z,62.37
2019-01-25T15:26:44.564Z,72.30
2019-01-25T15:29:14.183Z,71.97
2019-01-25T15:31:43.772Z,67.37
2019-01-25T15:34:13.379Z,70.57
2019-01-25T15:36:42.956Z,67.73
2019-01-25T15:39:12.791Z,77.03
2019-01-25T15:41:42.607Z,80.23
2019-01-25T15:44:12.199Z,72.23
2019-01-25T15:46:41.767Z,72.57
2019-01-25T15:49:11.390Z,62.63
2019-01-25T15:51:40.970Z,67.43
2019-01-25T15:54:10.555Z,66.07
2019-01-25T15:56:40.148Z,83.33
2019-01-25T15:59:09.739Z,68.10
2019-01-25T16:01:39.376Z,64.90
2019-01-25T16:04:09.015Z,58.17
2019-01-25T16:06:39.702Z,61.10
2019-01-25T16:09:14.103Z,50.47
2019-01-25T16:11:40.835Z,55.20
2019-01-25T16:14:17.654Z,54.17
2019-01-25T16:16:41.765Z,54.57
2019-01-25T16:19:11.378Z,53.40
2019-01-25T16:21:40.975Z,52.93
2019-01-25T16:24:10.561Z,47.50
2019-01-25T16:26:40.364Z,52.30
2019-01-25T16:29:10.278Z,53.10
2019-01-25T16:31:40.028Z,50.33
2019-01-25T16:34:10.060Z,49.20
2019-01-25T16:36:39.906Z,50.57
2019-01-25T16:39:09.797Z,54.43
2019-01-25T16:41:40.769Z,57.27
2019-01-25T16:44:10.503Z,51.97
2019-01-25T16:46:40.095Z,57.83
2019-01-25T16:49:09.748Z,50.17
2019-01-25T16:51:39.353Z,51.20
2019-01-25T16:54:09.268Z,51.07
2019-01-25T16:56:38.892Z,52.97
2019-01-25T16:59:08.515Z,55.33
2019-01-25T17:01:38.475Z,51.00
2019-01-25T17:04:08.051Z,53.10
2019-01-25T17:06:37.725Z,53.73
2019-01-25T17:09:08.299Z,54.20
2019-01-25T17:11:37.982Z,49.73
2019-01-25T17:14:07.715Z,53.00
2019-01-25T17:16:37.315Z,54.17
2019-01-25T17:19:06.916Z,51.27
2019-01-25T17:21:36.753Z,48.57
2019-01-25T17:24:07.684Z,50.40
2019-01-25T17:26:37.576Z,58.13
2019-01-25T17:29:07.239Z,56.53
2019-01-25T17:31:37.086Z,50.43
2019-01-25T17:34:06.783Z,49.20
2019-01-25T17:36:36.383Z,56.73
2019-01-25T17:39:15.506Z,47.83
2019-01-25T17:41:45.655Z,48.43
2019-01-25T17:44:15.242Z,53.30
2019-01-25T17:46:44.892Z,53.73
2019-01-25T17:49:14.554Z,49.27
2019-01-25T17:51:44.161Z,56.43
2019-01-25T17:54:13.722Z,54.33
2019-01-25T17:56:43.635Z,44.67
2019-01-25T17:59:13.202Z,47.97
2019-01-25T18:01:43.958Z,47.70
2019-01-25T18:04:14.055Z,56.03
2019-01-25T18:06:43.995Z,47.93
2019-01-25T18:09:13.574Z,49.87
2019-01-25T18:11:43.435Z,51.30
2019-01-25T18:14:13.018Z,58.27
2019-01-25T18:16:42.608Z,54.57
2019-01-25T18:19:12.199Z,65.57
2019-01-25T18:21:41.818Z,51.73
2019-01-25T18:24:11.443Z,60.30
2019-01-25T18:26:41.089Z,55.87
2019-01-25T18:29:18.739Z,74.80
2019-01-25T18:31:48.411Z,47.00
2019-01-25T18:34:18.021Z,50.60
2019-01-25T18:36:47.682Z,46.10
2019-01-25T18:39:17.340Z,46.10
2019-01-25T18:41:46.964Z,55.93
2019-01-25T18:44:16.547Z,45.97
2019-01-25T18:46:46.151Z,53.57
2019-01-25T18:49:15.741Z,51.23
2019-01-25T18:51:45.363Z,45.90
2019-01-25T18:54:14.981Z,49.83
2019-01-25T18:56:47.303Z,50.13
2019-01-25T18:59:16.880Z,46.80
2019-01-25T19:01:46.855Z,52.30
2019-01-25T19:04:16.429Z,48.40
2019-01-25T19:06:46.028Z,46.20
2019-01-25T19:09:15.609Z,49.53
2019-01-25T19:11:45.327Z,45.33
2019-01-25T19:14:14.927Z,48.00
2019-01-25T19:16:44.595Z,49.50
2019-01-25T19:19:14.174Z,43.93
2019-01-25T19:21:43.839Z,46.43
2019-01-25T19:24:13.433Z,46.00
2019-01-25T19:26:43.041Z,50.53
2019-01-25T19:29:12.611Z,49.83
2019-01-25T19:31:42.215Z,46.53
2019-01-25T19:34:11.834Z,45.83
2019-01-25T19:36:41.721Z,49.20
2019-01-25T19:39:13.655Z,50.17
2019-01-25T19:41:43.325Z,52.50
2019-01-25T19:44:12.975Z,47.80
2019-01-25T19:46:42.910Z,47.60
2019-01-25T19:49:12.501Z,50.70
2019-01-25T19:51:42.096Z,47.20
2019-01-25T19:54:11.935Z,49.03
2019-01-25T19:56:41.615Z,54.07
2019-01-25T19:59:11.659Z,47.97
2019-01-25T20:01:41.323Z,48.50
2019-01-25T20:04:10.988Z,51.70
2019-01-25T20:06:42.369Z,50.40
2019-01-25T20:09:12.031Z,50.73
2019-01-25T20:11:41.695Z,52.37
2019-01-25T20:14:11.300Z,53.73
2019-01-25T20:16:40.950Z,55.23
2019-01-25T20:19:10.629Z,52.87
2019-01-25T20:21:40.292Z,51.40
2019-01-25T20:24:09.976Z,51.00
2019-01-25T20:26:39.567Z,52.10
2019-01-25T20:29:09.168Z,53.90
2019-01-25T20:31:38.750Z,52.97
2019-01-25T20:34:08.380Z,56.60
2019-01-25T20:36:37.984Z,51.53
2019-01-25T20:39:08.576Z,52.70
2019-01-25T20:41:38.731Z,52.17
2019-01-25T20:44:08.343Z,55.63
2019-01-25T20:46:37.947Z,59.10
2019-01-25T20:49:07.547Z,57.93
2019-01-25T20:51:37.147Z,56.20
2019-01-25T20:54:06.823Z,60.77
2019-01-25T20:56:36.763Z,57.67
2019-01-25T20:59:06.371Z,59.00
2019-01-25T21:01:35.963Z,56.50
2019-01-25T21:04:05.655Z,55.87
2019-01-25T21:06:35.231Z,58.47
2019-01-25T21:09:08.207Z,56.50
2019-01-25T21:11:38.654Z,58.53
2019-01-25T21:14:08.320Z,59.40
2019-01-25T21:16:37.991Z,63.30
2019-01-25T21:19:07.907Z,76.13
2019-01-25T21:21:37.474Z,57.60
2019-01-25T21:24:07.329Z,61.47
2019-01-25T21:26:37.598Z,61.53
2019-01-25T21:29:07.206Z,62.50
2019-01-25T21:31:36.855Z,64.97
2019-01-25T21:34:06.463Z,62.93
2019-01-25T21:36:36.119Z,56.83
2019-01-25T21:39:08.918Z,61.70
2019-01-25T21:41:38.580Z,62.30
2019-01-25T21:44:08.179Z,86.27
2019-01-25T21:46:40.342Z,68.47
2019-01-25T21:49:09.075Z,60.93
2019-01-25T21:51:40.391Z,58.83
2019-01-25T21:54:10.073Z,57.60
2019-01-25T21:56:39.729Z,63.17
2019-01-25T21:59:09.327Z,61.20
2019-01-25T22:01:39.072Z,63.57
2019-01-25T22:04:09.041Z,58.00
2019-01-25T22:06:38.847Z,55.40
2019-01-25T22:09:08.980Z,57.03
2019-01-25T22:11:38.931Z,54.47
2019-01-25T22:14:08.851Z,62.33
2019-01-25T22:16:38.442Z,57.50
2019-01-25T22:19:08.387Z,55.90
2019-01-25T22:21:37.978Z,59.17
2019-01-25T22:24:07.675Z,62.17
2019-01-25T22:26:37.331Z,55.13
2019-01-25T22:29:08.007Z,55.93
2019-01-25T22:31:38.175Z,57.97
2019-01-25T22:34:08.299Z,56.63
2019-01-25T22:36:37.911Z,55.77
2019-01-25T22:39:08.678Z,57.20
2019-01-25T22:41:38.248Z,54.13
2019-01-25T22:44:07.842Z,54.93
2019-01-25T22:46:37.774Z,52.30
2019-01-25T22:49:07.716Z,52.90
2019-01-25T22:51:37.746Z,54.30
2019-01-25T22:54:07.728Z,51.73
2019-01-25T22:56:37.304Z,47.43
2019-01-25T22:59:06.919Z,54.53
2019-01-25T23:01:36.639Z,51.90
2019-01-25T23:04:40.996Z,51.33
2019-01-25T23:07:12.851Z,47.40
2019-01-25T23:09:51.485Z,49.20
2019-01-25T23:12:21.088Z,54.93
2019-01-25T23:14:50.715Z,64.00
2019-01-25T23:17:20.687Z,48.70
2019-01-25T23:19:50.274Z,49.20
2019-01-25T23:22:20.073Z,47.20
2019-01-25T23:24:49.727Z,49.37
2019-01-25T23:27:19.630Z,46.03
2019-01-25T23:29:50.453Z,49.07
2019-01-25T23:32:20.071Z,46.20
2019-01-25T23:34:49.652Z,45.17
2019-01-25T23:37:19.587Z,44.97
2019-01-25T23:39:49.165Z,46.37
2019-01-25T23:42:18.762Z,45.67
2019-01-25T23:44:48.340Z,43.87
2019-01-25T23:47:17.927Z,57.13
2019-01-25T23:49:47.687Z,45.33
2019-01-25T23:52:17.456Z,46.50
2019-01-25T23:54:47.042Z,41.10
2019-01-25T23:57:16.627Z,45.73
2019-01-25T23:59:46.250Z,43.90
